• Join FlightAware (Why Join?)
  • Login
  • US Flag 
11:41AM EDT


 

Airport Tracker/Info


-or-


 

Live Flight TrackerFlight Track Log ✈ EGF4174 ✈ 03-May-2013 ✈ KSYR - KORD

Flight Track Log - Related Links

Times and Time Zones

All times are in EDT time to prevent confusion due to time zone crossing. See the EGF4174 flight status page for this flight to view local times or setup timezone preferences in your user account.

Time Position Orientation Groundspeed Altitude Reporting Facility
EDT Latitude Longitude Course Direction KTS MPH feet Rate Location/Type
07:27PM 43.1089 -76.0922 286° West 154 177 1,100  Level Boston Center
07:28PM 43.1372 -76.0539 45° Northeast 201 231 2,700 1,620 Climbing Boston Center
07:29PM 43.1990 -76.4490 324° Northwest  Level FlightAware Approximate
07:29PM 43.1850 -76.1194 315° West 270 311 4,400  Level Boston Center
07:30PM 43.2109 -76.5765 281° West  Level FlightAware Approximate
07:31PM 43.2350 -76.7018 286° West  Level FlightAware Approximate
07:31PM 43.1881 -76.3742 271° West 275 316 9,700  Level Cleveland Center
07:32PM 43.2616 -76.8263 286° West  Level FlightAware Approximate
07:32PM 43.2067 -76.4842 283° West 281 323 11,300  Level Cleveland Center
07:33PM 43.2275 -76.6025 284° West 301 346 12,600 1,380 Climbing Cleveland Center
07:34PM 43.2486 -76.7294 283° West 329 379 14,100 1,440 Climbing Cleveland Center
07:35PM 43.2714 -76.8564 284° West 341 392 15,500 1,260 Climbing Cleveland Center
07:36PM 43.2872 -76.9611 282° West 347 399 16,700 1,260 Climbing Cleveland Center
07:37PM 43.3108 -77.1167 282° West 353 406 18,100 1,560 Climbing Cleveland Center
07:38PM 43.3106 -77.2508 270° West 353 406 19,900 1,620 Climbing Cleveland Center
07:39PM 43.3061 -77.3850 267° West 348 400 21,400 1,440 Climbing Cleveland Center
07:40PM 43.3014 -77.5194 267° West 354 407 22,800 1,440 Climbing Cleveland Center
07:41PM 43.2986 -77.6536 268° West 354 407 24,300 1,440 Climbing Cleveland Center
07:42PM 43.2956 -77.7850 268° West 354 407 25,700 1,380 Climbing Cleveland Center
07:43PM 43.2903 -77.9222 267° West 354 407 27,100 1,380 Climbing Cleveland Center
07:44PM 43.2869 -78.0508 268° West 349 402 28,500 1,200 Climbing Cleveland Center
07:45PM 43.2814 -78.1792 267° West 349 402 29,500 960 Climbing Cleveland Center
07:46PM 43.2778 -78.3133 268° West 349 402 30,500 900 Climbing Cleveland Center
07:47PM 43.2742 -78.4503 268° West 349 402 31,400 900 Climbing Cleveland Center
07:48PM 43.2706 -78.5903 268° West 354 407 32,400 900 Climbing Cleveland Center
07:49PM 43.2644 -78.7331 267° West 370 426 33,300 900 Climbing Cleveland Center
07:50PM 43.2603 -78.8700 268° West 370 426 34,200 900 Climbing Cleveland Center
07:51PM 43.2539 -79.0128 267° West 370 426 35,100 660 Climbing Cleveland Center
07:52PM 43.2333 -79.1333 257° West 370 426 35,600 420 Climbing Toronto Center
07:53PM 43.2333 -79.2833 270° West 380 437 36,000 180 Climbing Toronto Center
07:54PM 43.2167 -79.4333 261° West 390 449 36,000  Level Toronto Center
07:55PM 43.2167 -79.5833 270° West 410 472 36,000  Level Toronto Center
07:56PM 43.2167 -79.7500 270° West 420 483 36,000  Level Toronto Center
07:57PM 43.2000 -79.9000 261° West 420 483 36,000  Level Toronto Center
07:58PM 43.2000 -80.0667 270° West 410 472 36,000  Level Toronto Center
07:59PM 43.1833 -80.2333 262° West 410 472 36,000  Level Toronto Center
08:00PM 43.1833 -80.3667 270° West 410 472 36,000  Level Toronto Center
08:01PM 43.1833 -80.5500 270° West 420 483 36,000  Level Toronto Center
08:02PM 43.1667 -80.6833 260° West 430 495 36,000  Level Toronto Center
08:03PM 43.1500 -80.8667 263° West 420 483 36,000  Level Toronto Center
08:04PM 43.1333 -81.0000 260° West 420 483 36,000  Level Toronto Center
08:05PM 43.1333 -81.1667 270° West 420 483 36,000  Level Toronto Center
08:06PM 43.1167 -81.3167 261° West 420 483 36,000  Level Toronto Center
08:07PM 43.1167 -81.4833 270° West 420 483 36,000  Level Toronto Center
08:08PM 43.1000 -81.6500 262° West 420 483 36,000  Level Toronto Center
08:09PM 43.1000 -81.8000 270° West 420 483 36,000  Level Toronto Center
08:10PM 43.0833 -81.9667 262° West 420 483 36,000  Level Toronto Center
08:11PM 43.0667 -82.1167 261° West 420 483 36,000  Level Toronto Center
08:12PM 43.0667 -82.2833 270° West 420 483 36,000  Level Toronto Center
08:13PM 43.0500 -82.4333 261° West 420 483 36,000  Level Toronto Center
08:14PM 43.0500 -82.6000 270° West 420 483 36,000  Level Toronto Center
08:15PM 43.0417 -82.7733 266° West 424 488 36,000  Level Cleveland Center
08:16PM 43.0281 -82.9319 263° West 424 488 36,000  Level Cleveland Center
08:17PM 43.0167 -83.0847 264° West 424 488 36,000  Level Cleveland Center
08:18PM 43.0067 -83.2464 265° West 429 494 36,000 -540 Level Cleveland Center
08:19PM 42.9925 -83.4075 263° West 429 494 35,000 -1,500 Descending Cleveland Center
08:20PM 42.9800 -83.5686 264° West 424 488 33,000 -1,500 Descending Cleveland Center
08:21PM 42.9653 -83.7325 263° West 429 494 32,000 -540 Descending Cleveland Center
08:22PM 42.9503 -83.8992 263° West 436 502 32,000  Level Cleveland Center
08:23PM 42.9350 -84.0658 263° West 441 507 32,000  Level Cleveland Center
08:25PM 42.9089 -84.3417 263° West 453 521 32,000  Level Chicago Center
08:26PM 42.8911 -84.5111 262° West 451 519 32,000  Level Chicago Center
08:27PM 42.8739 -84.6825 262° West 456 525 32,000  Level Chicago Center
08:28PM 42.8569 -84.8517 262° West 454 522 32,000  Level Chicago Center
08:29PM 42.8350 -85.0528 262° West 450 518 32,000  Level Chicago Center
08:30PM 42.8175 -85.2200 262° West 446 513 32,000  Level Chicago Center
08:31PM 42.7986 -85.3883 261° West 448 516 32,000 -120 Level Chicago Center
08:32PM 42.7772 -85.5567 260° West 451 519 31,800 -1,500 Descending Chicago Center
08:33PM 42.7453 -85.7228 255° West 451 519 28,900 -3,000 Descending Chicago Center
08:34PM 42.7156 -85.8931 257° West 456 525 25,700 -3,060 Descending Chicago Center
08:35PM 42.6839 -86.0639 256° West 462 532 22,600 -2,760 Descending Chicago Center
08:36PM 42.6494 -86.2539 256° West 437 503 20,100 -2,220 Descending Chicago Center
08:37PM 42.6194 -86.4053 255° West 417 480 18,100 -1,860 Descending Chicago Center
08:38PM 42.5911 -86.5589 256° West 420 483 16,300 -1,620 Descending Chicago Center
08:39PM 42.5644 -86.7019 256° West 398 458 14,800 -1,500 Descending Chicago Center
08:40PM 42.5303 -86.8450 252° West 399 459 13,300 -1,500 Descending Chicago Center
08:41PM 42.4914 -86.9750 248° West 379 436 11,800 -1,440 Descending Chicago Center
08:42PM 42.4569 -87.1011 250° West 362 417 10,400 -960 Descending Chicago Center
08:43PM 42.4169 -87.2456 249° West 345 397 9,900 -300 Descending Chicago Center
08:44PM 42.3842 -87.3650 250° West 340 391 9,900 -60 Level Chicago Center
08:45PM 42.3547 -87.4758 250° West 322 371 9,800 -540 Descending Chicago Center
08:47PM 42.3111 -87.5636 236° Southwest 299 344 8,800 -900 Descending Chicago Center
08:48PM 42.2511 -87.6261 218° Southwest 277 319 8,000 -780 Descending Chicago Center
08:49PM 42.1911 -87.6889 218° Southwest 275 316 7,300 -540 Descending Chicago Center
08:50PM 42.1283 -87.7550 218° Southwest 245 282 6,900 -120 Descending Chicago Center
08:51PM 42.0833 -87.8167 225° Southwest 246 283 7,100 60 Climbing Chicago TRACON
08:52PM 42.0833 -87.9000 270° West 224 258 7,100  Level Chicago TRACON
08:53PM 42.0833 -87.9833 270° West 223 257 7,100  Level Chicago TRACON
08:54PM 42.0833 -88.0667 270° West 216 249 7,100 -300 Level Chicago TRACON
08:55PM 42.0833 -88.1500 270° West 212 244 6,500 -720 Descending Chicago TRACON
08:56PM 42.0833 -88.2333 270° West 213 245 5,700 -900 Descending Chicago TRACON
08:56PM 42.0897 -88.2433 311° West 213 245 5,400 -960 Descending Chicago Center
08:57PM 42.0892 -88.3203 269° West 209 241 4,500 -780 Descending Chicago Center
08:58PM 42.0800 -88.3978 261° West 210 242 3,900 -300 Descending Chicago Center
08:59PM 42.0403 -88.4242 206° Southwest 189 217 3,900  Level Chicago Center
09:00PM 41.9967 -88.4231 179° South 170 196 4,000  Climbing Chicago Center
09:01PM 41.9808 -88.3569 108° East 161 185 4,000  Level Chicago Center
09:02PM 41.9828 -88.2958 88° East 162 186 4,100  Climbing Chicago Center
09:03PM 41.9833 -88.2394 89° East 158 182 4,100  Level Chicago Center
09:04PM 41.9828 -88.1778 91° East 160 184 4,100  Level Chicago Center